sensor_id;sensor_type;location;lat;lon;timestamp;P1;durP1;ratioP1;P2;durP2;ratioP2
62554;SDS011;48610;52.144;8.624;2023-06-22T00:07:36;20.27;;;12.05;;
62554;SDS011;48610;52.144;8.624;2023-06-22T00:15:29;17.73;;;11.45;;
62554;SDS011;48610;52.144;8.624;2023-06-22T00:19:22;17.35;;;11.52;;
62554;SDS011;48610;52.144;8.624;2023-06-22T00:27:47;17.42;;;11.23;;
62554;SDS011;48610;52.144;8.624;2023-06-22T00:31:26;19.20;;;12.05;;
62554;SDS011;48610;52.144;8.624;2023-06-22T00:35:28;23.40;;;11.70;;
62554;SDS011;48610;52.144;8.624;2023-06-22T00:47:39;24.55;;;13.07;;
62554;SDS011;48610;52.144;8.624;2023-06-22T00:51:37;23.80;;;14.20;;
62554;SDS011;48610;52.144;8.624;2023-06-22T00:55:29;22.33;;;12.93;;
62554;SDS011;48610;52.144;8.624;2023-06-22T00:59:32;21.90;;;13.23;;
62554;SDS011;48610;52.144;8.624;2023-06-22T01:15:39;22.30;;;13.80;;
62554;SDS011;48610;52.144;8.624;2023-06-22T01:31:30;28.60;;;16.23;;
62554;SDS011;48610;52.144;8.624;2023-06-22T01:38:57;35.15;;;16.40;;
62554;SDS011;48610;52.144;8.624;2023-06-22T01:42:47;30.08;;;15.82;;
62554;SDS011;48610;52.144;8.624;2023-06-22T01:46:33;24.73;;;15.38;;
62554;SDS011;48610;52.144;8.624;2023-06-22T01:50:41;33.72;;;16.30;;
62554;SDS011;48610;52.144;8.624;2023-06-22T01:58:56;25.50;;;16.10;;
62554;SDS011;48610;52.144;8.624;2023-06-22T02:02:08;37.72;;;16.15;;
62554;SDS011;48610;52.144;8.624;2023-06-22T02:05:50;30.40;;;16.48;;
62554;SDS011;48610;52.144;8.624;2023-06-22T02:09:37;26.27;;;16.25;;
62554;SDS011;48610;52.144;8.624;2023-06-22T02:18:15;29.08;;;15.90;;
62554;SDS011;48610;52.144;8.624;2023-06-22T02:21:44;26.90;;;16.60;;
62554;SDS011;48610;52.144;8.624;2023-06-22T02:25:41;26.75;;;16.15;;
62554;SDS011;48610;52.144;8.624;2023-06-22T02:33:00;31.30;;;16.50;;
62554;SDS011;48610;52.144;8.624;2023-06-22T02:45:24;64.70;;;17.70;;
62554;SDS011;48610;52.144;8.624;2023-06-22T02:52:59;31.80;;;16.90;;
62554;SDS011;48610;52.144;8.624;2023-06-22T02:56:36;29.75;;;17.65;;
62554;SDS011;48610;52.144;8.624;2023-06-22T03:04:37;31.05;;;17.20;;
62554;SDS011;48610;52.144;8.624;2023-06-22T03:12:27;29.67;;;17.73;;
62554;SDS011;48610;52.144;8.624;2023-06-22T03:15:55;32.05;;;17.17;;
62554;SDS011;48610;52.144;8.624;2023-06-22T03:23:14;33.90;;;16.27;;
62554;SDS011;48610;52.144;8.624;2023-06-22T03:35:04;31.98;;;17.02;;
62554;SDS011;48610;52.144;8.624;2023-06-22T03:45:47;36.08;;;17.80;;
62554;SDS011;48610;52.144;8.624;2023-06-22T03:49:33;28.48;;;17.40;;
62554;SDS011;48610;52.144;8.624;2023-06-22T03:53:03;33.85;;;18.23;;
62554;SDS011;48610;52.144;8.624;2023-06-22T04:00:36;32.65;;;17.65;;
62554;SDS011;48610;52.144;8.624;2023-06-22T04:11:22;29.00;;;17.52;;
62554;SDS011;48610;52.144;8.624;2023-06-22T04:14:58;33.08;;;17.55;;
62554;SDS011;48610;52.144;8.624;2023-06-22T04:27:20;29.73;;;17.38;;
62554;SDS011;48610;52.144;8.624;2023-06-22T04:35:03;35.42;;;17.13;;
62554;SDS011;48610;52.144;8.624;2023-06-22T04:46:52;32.05;;;18.00;;
62554;SDS011;48610;52.144;8.624;2023-06-22T04:50:05;32.58;;;18.48;;
62554;SDS011;48610;52.144;8.624;2023-06-22T04:53:07;31.35;;;18.55;;
62554;SDS011;48610;52.144;8.624;2023-06-22T04:56:09;31.60;;;17.70;;
62554;SDS011;48610;52.144;8.624;2023-06-22T04:59:14;30.85;;;18.30;;
62554;SDS011;48610;52.144;8.624;2023-06-22T05:05:15;31.95;;;18.02;;
62554;SDS011;48610;52.144;8.624;2023-06-22T05:08:19;32.78;;;19.02;;
62554;SDS011;48610;52.144;8.624;2023-06-22T05:11:20;37.72;;;20.52;;
62554;SDS011;48610;52.144;8.624;2023-06-22T05:14:20;31.98;;;18.92;;
62554;SDS011;48610;52.144;8.624;2023-06-22T05:17:24;30.88;;;18.98;;
62554;SDS011;48610;52.144;8.624;2023-06-22T05:20:25;33.55;;;20.13;;
62554;SDS011;48610;52.144;8.624;2023-06-22T05:23:28;34.03;;;19.33;;
62554;SDS011;48610;52.144;8.624;2023-06-22T05:26:30;33.35;;;19.20;;
62554;SDS011;48610;52.144;8.624;2023-06-22T05:29:31;33.88;;;20.38;;
62554;SDS011;48610;52.144;8.624;2023-06-22T05:32:31;41.05;;;21.02;;
62554;SDS011;48610;52.144;8.624;2023-06-22T05:35:35;38.03;;;21.80;;
62554;SDS011;48610;52.144;8.624;2023-06-22T05:38:36;35.72;;;19.88;;
62554;SDS011;48610;52.144;8.624;2023-06-22T05:41:37;33.53;;;19.73;;
62554;SDS011;48610;52.144;8.624;2023-06-22T05:44:40;43.30;;;21.45;;
62554;SDS011;48610;52.144;8.624;2023-06-22T05:47:41;42.13;;;21.65;;
62554;SDS011;48610;52.144;8.624;2023-06-22T05:50:42;36.13;;;20.38;;
62554;SDS011;48610;52.144;8.624;2023-06-22T05:53:45;50.05;;;22.27;;
62554;SDS011;48610;52.144;8.624;2023-06-22T05:56:49;40.03;;;21.55;;
62554;SDS011;48610;52.144;8.624;2023-06-22T05:59:50;44.17;;;21.60;;
62554;SDS011;48610;52.144;8.624;2023-06-22T06:02:53;34.15;;;21.48;;
62554;SDS011;48610;52.144;8.624;2023-06-22T06:06:03;37.15;;;21.90;;
62554;SDS011;48610;52.144;8.624;2023-06-22T06:09:04;38.20;;;21.20;;
62554;SDS011;48610;52.144;8.624;2023-06-22T06:12:05;34.58;;;20.73;;
62554;SDS011;48610;52.144;8.624;2023-06-22T06:15:08;33.05;;;20.40;;
62554;SDS011;48610;52.144;8.624;2023-06-22T06:18:09;35.15;;;20.52;;
62554;SDS011;48610;52.144;8.624;2023-06-22T06:21:10;34.17;;;20.00;;
62554;SDS011;48610;52.144;8.624;2023-06-22T06:24:11;36.55;;;20.75;;
62554;SDS011;48610;52.144;8.624;2023-06-22T06:27:11;49.13;;;20.83;;
62554;SDS011;48610;52.144;8.624;2023-06-22T06:30:13;34.97;;;20.92;;
62554;SDS011;48610;52.144;8.624;2023-06-22T06:33:18;34.70;;;19.95;;
62554;SDS011;48610;52.144;8.624;2023-06-22T06:36:19;33.92;;;21.02;;
62554;SDS011;48610;52.144;8.624;2023-06-22T06:39:19;34.38;;;20.92;;
62554;SDS011;48610;52.144;8.624;2023-06-22T06:42:23;36.25;;;20.80;;
62554;SDS011;48610;52.144;8.624;2023-06-22T06:45:24;35.97;;;20.30;;
62554;SDS011;48610;52.144;8.624;2023-06-22T06:48:32;34.17;;;19.98;;
62554;SDS011;48610;52.144;8.624;2023-06-22T06:51:33;37.03;;;21.90;;
62554;SDS011;48610;52.144;8.624;2023-06-22T06:54:36;37.20;;;19.52;;
62554;SDS011;48610;52.144;8.624;2023-06-22T07:00:48;37.13;;;21.27;;
62554;SDS011;48610;52.144;8.624;2023-06-22T07:03:49;45.90;;;22.75;;
62554;SDS011;48610;52.144;8.624;2023-06-22T07:06:49;36.67;;;21.23;;
62554;SDS011;48610;52.144;8.624;2023-06-22T07:09:52;42.28;;;21.25;;
62554;SDS011;48610;52.144;8.624;2023-06-22T07:12:53;31.23;;;20.08;;
62554;SDS011;48610;52.144;8.624;2023-06-22T07:15:56;38.63;;;20.25;;
62554;SDS011;48610;52.144;8.624;2023-06-22T07:18:57;34.50;;;20.08;;
62554;SDS011;48610;52.144;8.624;2023-06-22T07:21:57;31.85;;;20.23;;
62554;SDS011;48610;52.144;8.624;2023-06-22T07:24:58;42.45;;;21.05;;
62554;SDS011;48610;52.144;8.624;2023-06-22T07:28:03;36.05;;;18.63;;
62554;SDS011;48610;52.144;8.624;2023-06-22T07:31:11;35.47;;;20.42;;
62554;SDS011;48610;52.144;8.624;2023-06-22T07:34:14;35.72;;;20.27;;
62554;SDS011;48610;52.144;8.624;2023-06-22T07:37:15;35.58;;;20.40;;
62554;SDS011;48610;52.144;8.624;2023-06-22T07:40:16;36.90;;;20.17;;
62554;SDS011;48610;52.144;8.624;2023-06-22T07:43:16;35.15;;;19.50;;
62554;SDS011;48610;52.144;8.624;2023-06-22T07:46:17;34.17;;;20.77;;
62554;SDS011;48610;52.144;8.624;2023-06-22T07:49:17;35.95;;;20.75;;
62554;SDS011;48610;52.144;8.624;2023-06-22T07:52:18;35.05;;;19.65;;
62554;SDS011;48610;52.144;8.624;2023-06-22T07:55:21;37.17;;;20.75;;
62554;SDS011;48610;52.144;8.624;2023-06-22T07:58:22;38.40;;;21.75;;
62554;SDS011;48610;52.144;8.624;2023-06-22T08:01:28;32.58;;;19.02;;
62554;SDS011;48610;52.144;8.624;2023-06-22T08:04:29;34.92;;;19.40;;
62554;SDS011;48610;52.144;8.624;2023-06-22T08:07:31;41.20;;;19.50;;
62554;SDS011;48610;52.144;8.624;2023-06-22T08:10:35;38.13;;;20.00;;
62554;SDS011;48610;52.144;8.624;2023-06-22T08:13:36;32.65;;;18.95;;
62554;SDS011;48610;52.144;8.624;2023-06-22T08:16:39;41.15;;;19.95;;
62554;SDS011;48610;52.144;8.624;2023-06-22T08:19:41;35.63;;;18.83;;
62554;SDS011;48610;52.144;8.624;2023-06-22T08:22:42;35.53;;;19.40;;
62554;SDS011;48610;52.144;8.624;2023-06-22T08:25:43;32.88;;;18.38;;
62554;SDS011;48610;52.144;8.624;2023-06-22T08:28:44;36.95;;;19.38;;
62554;SDS011;48610;52.144;8.624;2023-06-22T08:31:44;45.88;;;19.88;;
62554;SDS011;48610;52.144;8.624;2023-06-22T08:34:45;35.28;;;18.45;;
62554;SDS011;48610;52.144;8.624;2023-06-22T08:37:45;39.10;;;18.70;;
62554;SDS011;48610;52.144;8.624;2023-06-22T08:40:52;40.88;;;19.02;;
62554;SDS011;48610;52.144;8.624;2023-06-22T08:43:53;38.47;;;19.77;;
62554;SDS011;48610;52.144;8.624;2023-06-22T08:46:53;32.60;;;18.67;;
62554;SDS011;48610;52.144;8.624;2023-06-22T08:49:54;29.73;;;18.65;;
62554;SDS011;48610;52.144;8.624;2023-06-22T08:52:55;35.30;;;19.02;;
62554;SDS011;48610;52.144;8.624;2023-06-22T08:55:58;34.70;;;19.92;;
62554;SDS011;48610;52.144;8.624;2023-06-22T08:59:00;33.22;;;18.65;;
62554;SDS011;48610;52.144;8.624;2023-06-22T09:02:01;37.20;;;20.80;;
62554;SDS011;48610;52.144;8.624;2023-06-22T09:05:02;32.65;;;20.27;;
62554;SDS011;48610;52.144;8.624;2023-06-22T09:08:07;36.72;;;20.58;;
62554;SDS011;48610;52.144;8.624;2023-06-22T09:11:07;38.47;;;19.77;;
62554;SDS011;48610;52.144;8.624;2023-06-22T09:14:09;34.42;;;19.45;;
62554;SDS011;48610;52.144;8.624;2023-06-22T09:17:10;34.67;;;18.90;;
62554;SDS011;48610;52.144;8.624;2023-06-22T09:20:12;35.55;;;18.27;;
62554;SDS011;48610;52.144;8.624;2023-06-22T09:23:12;32.38;;;18.08;;
62554;SDS011;48610;52.144;8.624;2023-06-22T09:26:13;30.90;;;19.70;;
62554;SDS011;48610;52.144;8.624;2023-06-22T09:29:14;34.85;;;18.67;;
62554;SDS011;48610;52.144;8.624;2023-06-22T09:32:14;33.60;;;18.40;;
62554;SDS011;48610;52.144;8.624;2023-06-22T09:35:15;41.92;;;20.65;;
62554;SDS011;48610;52.144;8.624;2023-06-22T09:38:18;32.60;;;19.95;;
62554;SDS011;48610;52.144;8.624;2023-06-22T09:41:22;42.70;;;18.33;;
62554;SDS011;48610;52.144;8.624;2023-06-22T09:44:22;32.80;;;19.27;;
62554;SDS011;48610;52.144;8.624;2023-06-22T09:47:26;29.70;;;18.70;;
62554;SDS011;48610;52.144;8.624;2023-06-22T09:50:26;37.83;;;20.08;;
62554;SDS011;48610;52.144;8.624;2023-06-22T09:53:27;35.80;;;17.70;;
62554;SDS011;48610;52.144;8.624;2023-06-22T09:56:28;27.63;;;17.25;;
62554;SDS011;48610;52.144;8.624;2023-06-22T09:59:30;26.63;;;16.92;;
62554;SDS011;48610;52.144;8.624;2023-06-22T10:02:31;29.23;;;16.25;;
62554;SDS011;48610;52.144;8.624;2023-06-22T10:05:31;33.10;;;17.17;;
62554;SDS011;48610;52.144;8.624;2023-06-22T10:08:34;28.38;;;16.42;;
62554;SDS011;48610;52.144;8.624;2023-06-22T10:11:36;37.70;;;16.83;;
62554;SDS011;48610;52.144;8.624;2023-06-22T10:14:37;40.95;;;17.52;;
62554;SDS011;48610;52.144;8.624;2023-06-22T10:17:39;31.65;;;16.15;;
62554;SDS011;48610;52.144;8.624;2023-06-22T10:20:40;30.05;;;16.98;;
62554;SDS011;48610;52.144;8.624;2023-06-22T10:23:41;26.08;;;16.38;;
62554;SDS011;48610;52.144;8.624;2023-06-22T10:26:44;34.40;;;17.73;;
62554;SDS011;48610;52.144;8.624;2023-06-22T10:29:44;31.50;;;18.75;;
62554;SDS011;48610;52.144;8.624;2023-06-22T10:32:45;28.95;;;16.85;;
62554;SDS011;48610;52.144;8.624;2023-06-22T10:35:48;30.48;;;16.52;;
62554;SDS011;48610;52.144;8.624;2023-06-22T10:38:49;32.88;;;18.60;;
62554;SDS011;48610;52.144;8.624;2023-06-22T10:41:49;27.67;;;17.23;;
62554;SDS011;48610;52.144;8.624;2023-06-22T10:44:50;33.35;;;16.58;;
62554;SDS011;48610;52.144;8.624;2023-06-22T10:47:50;24.42;;;15.05;;
62554;SDS011;48610;52.144;8.624;2023-06-22T10:50:51;29.13;;;16.23;;
62554;SDS011;48610;52.144;8.624;2023-06-22T10:53:53;25.23;;;15.98;;
62554;SDS011;48610;52.144;8.624;2023-06-22T10:56:55;26.00;;;15.43;;
62554;SDS011;48610;52.144;8.624;2023-06-22T10:59:55;22.70;;;14.55;;
62554;SDS011;48610;52.144;8.624;2023-06-22T11:02:56;23.70;;;14.13;;
62554;SDS011;48610;52.144;8.624;2023-06-22T11:05:58;27.27;;;15.60;;
62554;SDS011;48610;52.144;8.624;2023-06-22T11:09:02;28.48;;;15.75;;
62554;SDS011;48610;52.144;8.624;2023-06-22T11:20:18;22.92;;;14.15;;
62554;SDS011;48610;52.144;8.624;2023-06-22T11:23:21;27.98;;;15.73;;
62554;SDS011;48610;52.144;8.624;2023-06-22T11:26:22;37.25;;;17.48;;
62554;SDS011;48610;52.144;8.624;2023-06-22T11:29:25;24.05;;;15.05;;
62554;SDS011;48610;52.144;8.624;2023-06-22T11:32:25;24.02;;;14.48;;
62554;SDS011;48610;52.144;8.624;2023-06-22T11:35:28;30.80;;;17.45;;
62554;SDS011;48610;52.144;8.624;2023-06-22T11:38:31;25.00;;;14.82;;
62554;SDS011;48610;52.144;8.624;2023-06-22T11:41:36;29.65;;;16.08;;
62554;SDS011;48610;52.144;8.624;2023-06-22T11:44:39;23.10;;;14.68;;
62554;SDS011;48610;52.144;8.624;2023-06-22T11:47:43;32.25;;;15.25;;
62554;SDS011;48610;52.144;8.624;2023-06-22T11:50:44;25.02;;;13.95;;
62554;SDS011;48610;52.144;8.624;2023-06-22T11:53:57;21.95;;;14.40;;
62554;SDS011;48610;52.144;8.624;2023-06-22T11:56:58;20.83;;;13.05;;
62554;SDS011;48610;52.144;8.624;2023-06-22T11:59:59;24.70;;;13.13;;
62554;SDS011;48610;52.144;8.624;2023-06-22T12:03:00;20.38;;;13.60;;
62554;SDS011;48610;52.144;8.624;2023-06-22T12:06:00;21.80;;;13.35;;
62554;SDS011;48610;52.144;8.624;2023-06-22T12:09:01;22.25;;;12.70;;
62554;SDS011;48610;52.144;8.624;2023-06-22T12:12:07;18.45;;;11.77;;
62554;SDS011;48610;52.144;8.624;2023-06-22T12:15:09;20.23;;;12.98;;
62554;SDS011;48610;52.144;8.624;2023-06-22T12:18:10;16.58;;;11.75;;
62554;SDS011;48610;52.144;8.624;2023-06-22T12:21:16;21.38;;;12.43;;
62554;SDS011;48610;52.144;8.624;2023-06-22T12:24:19;20.40;;;11.77;;
62554;SDS011;48610;52.144;8.624;2023-06-22T12:37:39;21.30;;;11.85;;
62554;SDS011;48610;52.144;8.624;2023-06-22T12:41:21;19.70;;;12.77;;
62554;SDS011;48610;52.144;8.624;2023-06-22T12:44:26;24.48;;;12.15;;
62554;SDS011;48610;52.144;8.624;2023-06-22T12:47:48;22.00;;;13.50;;
62554;SDS011;48610;52.144;8.624;2023-06-22T12:50:53;25.90;;;13.82;;
62554;SDS011;48610;52.144;8.624;2023-06-22T12:54:16;22.23;;;13.10;;
62554;SDS011;48610;52.144;8.624;2023-06-22T13:00:45;24.85;;;15.10;;
62554;SDS011;48610;52.144;8.624;2023-06-22T13:04:20;24.60;;;14.65;;
62554;SDS011;48610;52.144;8.624;2023-06-22T13:07:32;27.55;;;16.20;;
62554;SDS011;48610;52.144;8.624;2023-06-22T13:10:53;39.08;;;16.83;;
62554;SDS011;48610;52.144;8.624;2023-06-22T13:14:06;26.98;;;16.55;;
62554;SDS011;48610;52.144;8.624;2023-06-22T13:17:09;28.83;;;17.67;;
62554;SDS011;48610;52.144;8.624;2023-06-22T13:20:19;26.45;;;16.95;;
62554;SDS011;48610;52.144;8.624;2023-06-22T13:23:28;26.98;;;17.45;;
62554;SDS011;48610;52.144;8.624;2023-06-22T13:26:34;31.02;;;17.98;;
62554;SDS011;48610;52.144;8.624;2023-06-22T13:33:20;26.77;;;17.50;;
62554;SDS011;48610;52.144;8.624;2023-06-22T13:36:21;26.50;;;17.48;;
62554;SDS011;48610;52.144;8.624;2023-06-22T13:39:28;25.95;;;16.15;;
62554;SDS011;48610;52.144;8.624;2023-06-22T13:42:29;28.02;;;17.85;;
62554;SDS011;48610;52.144;8.624;2023-06-22T13:45:42;29.55;;;17.92;;
62554;SDS011;48610;52.144;8.624;2023-06-22T13:48:59;29.52;;;18.35;;
62554;SDS011;48610;52.144;8.624;2023-06-22T13:51:59;28.92;;;18.50;;
62554;SDS011;48610;52.144;8.624;2023-06-22T13:55:00;32.13;;;17.20;;
62554;SDS011;48610;52.144;8.624;2023-06-22T13:58:00;32.80;;;19.50;;
62554;SDS011;48610;52.144;8.624;2023-06-22T14:01:01;33.65;;;19.45;;
62554;SDS011;48610;52.144;8.624;2023-06-22T14:04:01;38.42;;;20.55;;
62554;SDS011;48610;52.144;8.624;2023-06-22T14:07:02;38.20;;;21.45;;
62554;SDS011;48610;52.144;8.624;2023-06-22T14:10:03;35.70;;;22.77;;
62554;SDS011;48610;52.144;8.624;2023-06-22T14:13:04;40.38;;;22.40;;
62554;SDS011;48610;52.144;8.624;2023-06-22T14:16:07;42.28;;;21.15;;
62554;SDS011;48610;52.144;8.624;2023-06-22T14:19:07;36.80;;;20.80;;
62554;SDS011;48610;52.144;8.624;2023-06-22T14:22:08;37.03;;;23.25;;
62554;SDS011;48610;52.144;8.624;2023-06-22T14:25:08;50.53;;;25.83;;
62554;SDS011;48610;52.144;8.624;2023-06-22T14:28:09;45.65;;;24.50;;
62554;SDS011;48610;52.144;8.624;2023-06-22T14:31:32;46.53;;;26.35;;
62554;SDS011;48610;52.144;8.624;2023-06-22T14:34:45;54.60;;;25.13;;
62554;SDS011;48610;52.144;8.624;2023-06-22T14:37:45;44.30;;;22.88;;
62554;SDS011;48610;52.144;8.624;2023-06-22T14:40:48;41.08;;;20.70;;
62554;SDS011;48610;52.144;8.624;2023-06-22T14:43:50;40.22;;;21.35;;
62554;SDS011;48610;52.144;8.624;2023-06-22T14:46:50;38.55;;;20.55;;
62554;SDS011;48610;52.144;8.624;2023-06-22T14:49:51;50.78;;;24.27;;
62554;SDS011;48610;52.144;8.624;2023-06-22T14:52:51;52.28;;;25.33;;
62554;SDS011;48610;52.144;8.624;2023-06-22T14:55:53;51.85;;;27.02;;
62554;SDS011;48610;52.144;8.624;2023-06-22T14:58:54;48.22;;;26.92;;
62554;SDS011;48610;52.144;8.624;2023-06-22T15:01:58;53.22;;;26.85;;
62554;SDS011;48610;52.144;8.624;2023-06-22T15:04:58;51.85;;;28.10;;
62554;SDS011;48610;52.144;8.624;2023-06-22T15:11:59;52.67;;;28.90;;
62554;SDS011;48610;52.144;8.624;2023-06-22T15:15:01;63.85;;;30.58;;
62554;SDS011;48610;52.144;8.624;2023-06-22T15:18:02;61.35;;;31.52;;
62554;SDS011;48610;52.144;8.624;2023-06-22T15:21:03;69.45;;;32.75;;
62554;SDS011;48610;52.144;8.624;2023-06-22T15:24:04;60.78;;;33.10;;
62554;SDS011;48610;52.144;8.624;2023-06-22T15:27:04;65.80;;;34.72;;
62554;SDS011;48610;52.144;8.624;2023-06-22T15:30:05;66.07;;;33.65;;
62554;SDS011;48610;52.144;8.624;2023-06-22T15:33:07;62.30;;;34.58;;
62554;SDS011;48610;52.144;8.624;2023-06-22T15:36:07;65.93;;;35.45;;
62554;SDS011;48610;52.144;8.624;2023-06-22T15:39:08;69.40;;;35.42;;
62554;SDS011;48610;52.144;8.624;2023-06-22T15:42:09;68.57;;;37.83;;
62554;SDS011;48610;52.144;8.624;2023-06-22T15:45:09;78.07;;;37.25;;
62554;SDS011;48610;52.144;8.624;2023-06-22T15:48:10;100.47;;;49.95;;
62554;SDS011;48610;52.144;8.624;2023-06-22T15:51:10;87.93;;;41.28;;
62554;SDS011;48610;52.144;8.624;2023-06-22T15:54:11;226.38;;;111.90;;
62554;SDS011;48610;52.144;8.624;2023-06-22T15:57:12;147.15;;;66.00;;
62554;SDS011;48610;52.144;8.624;2023-06-22T16:00:13;101.50;;;45.60;;
62554;SDS011;48610;52.144;8.624;2023-06-22T16:03:17;100.43;;;44.45;;
62554;SDS011;48610;52.144;8.624;2023-06-22T16:06:17;114.03;;;48.20;;
62554;SDS011;48610;52.144;8.624;2023-06-22T16:09:18;132.35;;;53.92;;
62554;SDS011;48610;52.144;8.624;2023-06-22T16:19:27;101.70;;;44.42;;
62554;SDS011;48610;52.144;8.624;2023-06-22T16:22:28;95.32;;;43.67;;
62554;SDS011;48610;52.144;8.624;2023-06-22T16:28:53;102.15;;;45.92;;
62554;SDS011;48610;52.144;8.624;2023-06-22T16:31:53;105.18;;;44.03;;
62554;SDS011;48610;52.144;8.624;2023-06-22T16:34:54;105.85;;;43.70;;
62554;SDS011;48610;52.144;8.624;2023-06-22T16:37:55;101.60;;;43.05;;
62554;SDS011;48610;52.144;8.624;2023-06-22T16:40:55;103.43;;;44.70;;
62554;SDS011;48610;52.144;8.624;2023-06-22T16:43:56;95.78;;;41.95;;
62554;SDS011;48610;52.144;8.624;2023-06-22T16:46:58;93.53;;;39.80;;
62554;SDS011;48610;52.144;8.624;2023-06-22T16:50:00;90.15;;;41.17;;
62554;SDS011;48610;52.144;8.624;2023-06-22T16:53:00;95.22;;;41.45;;
62554;SDS011;48610;52.144;8.624;2023-06-22T16:56:01;93.25;;;40.72;;
62554;SDS011;48610;52.144;8.624;2023-06-22T16:59:01;93.13;;;39.67;;
62554;SDS011;48610;52.144;8.624;2023-06-22T17:02:02;86.65;;;40.53;;
62554;SDS011;48610;52.144;8.624;2023-06-22T17:05:04;87.35;;;40.20;;
62554;SDS011;48610;52.144;8.624;2023-06-22T17:08:06;81.60;;;39.38;;
62554;SDS011;48610;52.144;8.624;2023-06-22T17:11:13;86.30;;;39.10;;
62554;SDS011;48610;52.144;8.624;2023-06-22T17:14:14;82.63;;;38.33;;
62554;SDS011;48610;52.144;8.624;2023-06-22T17:17:17;91.55;;;40.67;;
62554;SDS011;48610;52.144;8.624;2023-06-22T17:20:18;91.70;;;39.63;;
62554;SDS011;48610;52.144;8.624;2023-06-22T17:23:19;84.05;;;38.22;;
62554;SDS011;48610;52.144;8.624;2023-06-22T17:26:20;86.80;;;39.67;;
62554;SDS011;48610;52.144;8.624;2023-06-22T17:29:27;90.40;;;42.10;;
62554;SDS011;48610;52.144;8.624;2023-06-22T17:32:31;99.13;;;41.05;;
62554;SDS011;48610;52.144;8.624;2023-06-22T17:35:32;118.68;;;47.88;;
62554;SDS011;48610;52.144;8.624;2023-06-22T17:38:32;109.88;;;46.95;;
62554;SDS011;48610;52.144;8.624;2023-06-22T17:41:39;112.07;;;47.45;;
62554;SDS011;48610;52.144;8.624;2023-06-22T17:44:42;103.55;;;45.45;;
62554;SDS011;48610;52.144;8.624;2023-06-22T17:47:46;107.38;;;45.03;;
62554;SDS011;48610;52.144;8.624;2023-06-22T17:53:48;89.88;;;40.90;;
62554;SDS011;48610;52.144;8.624;2023-06-22T17:56:52;80.07;;;39.85;;
62554;SDS011;48610;52.144;8.624;2023-06-22T17:59:53;91.93;;;43.85;;
62554;SDS011;48610;52.144;8.624;2023-06-22T18:02:54;91.57;;;42.85;;
62554;SDS011;48610;52.144;8.624;2023-06-22T18:05:55;90.78;;;45.05;;
62554;SDS011;48610;52.144;8.624;2023-06-22T18:08:56;99.85;;;45.25;;
62554;SDS011;48610;52.144;8.624;2023-06-22T18:12:01;96.53;;;43.28;;
62554;SDS011;48610;52.144;8.624;2023-06-22T18:15:05;86.28;;;41.40;;
62554;SDS011;48610;52.144;8.624;2023-06-22T18:18:07;77.65;;;41.60;;
62554;SDS011;48610;52.144;8.624;2023-06-22T18:21:08;74.07;;;39.75;;
62554;SDS011;48610;52.144;8.624;2023-06-22T18:24:09;75.68;;;39.92;;
62554;SDS011;48610;52.144;8.624;2023-06-22T18:27:12;74.78;;;37.83;;
62554;SDS011;48610;52.144;8.624;2023-06-22T18:30:19;68.93;;;36.90;;
62554;SDS011;48610;52.144;8.624;2023-06-22T18:33:20;69.47;;;36.97;;
62554;SDS011;48610;52.144;8.624;2023-06-22T18:36:45;60.75;;;35.92;;
62554;SDS011;48610;52.144;8.624;2023-06-22T18:39:53;69.72;;;35.05;;
62554;SDS011;48610;52.144;8.624;2023-06-22T18:42:59;63.08;;;33.65;;
62554;SDS011;48610;52.144;8.624;2023-06-22T18:52:39;53.38;;;30.15;;
62554;SDS011;48610;52.144;8.624;2023-06-22T18:55:43;50.88;;;29.58;;
62554;SDS011;48610;52.144;8.624;2023-06-22T18:58:56;56.67;;;29.73;;
62554;SDS011;48610;52.144;8.624;2023-06-22T19:02:00;55.95;;;29.88;;
62554;SDS011;48610;52.144;8.624;2023-06-22T19:08:13;46.40;;;28.67;;
62554;SDS011;48610;52.144;8.624;2023-06-22T19:11:14;48.63;;;28.08;;
62554;SDS011;48610;52.144;8.624;2023-06-22T19:14:21;44.83;;;27.65;;
62554;SDS011;48610;52.144;8.624;2023-06-22T19:17:22;54.40;;;29.20;;
62554;SDS011;48610;52.144;8.624;2023-06-22T19:20:25;43.03;;;26.85;;
62554;SDS011;48610;52.144;8.624;2023-06-22T19:23:37;46.95;;;28.17;;
62554;SDS011;48610;52.144;8.624;2023-06-22T19:26:38;44.20;;;27.38;;
62554;SDS011;48610;52.144;8.624;2023-06-22T19:29:52;49.00;;;26.20;;
62554;SDS011;48610;52.144;8.624;2023-06-22T19:32:55;43.80;;;25.45;;
62554;SDS011;48610;52.144;8.624;2023-06-22T19:35:59;46.05;;;26.38;;
62554;SDS011;48610;52.144;8.624;2023-06-22T19:39:00;40.20;;;24.65;;
62554;SDS011;48610;52.144;8.624;2023-06-22T19:42:02;42.85;;;26.05;;
62554;SDS011;48610;52.144;8.624;2023-06-22T19:45:02;35.60;;;24.42;;
62554;SDS011;48610;52.144;8.624;2023-06-22T19:48:04;38.30;;;22.85;;
62554;SDS011;48610;52.144;8.624;2023-06-22T19:51:06;40.67;;;24.90;;
62554;SDS011;48610;52.144;8.624;2023-06-22T19:54:07;52.40;;;25.30;;
62554;SDS011;48610;52.144;8.624;2023-06-22T19:57:10;45.80;;;23.55;;
62554;SDS011;48610;52.144;8.624;2023-06-22T20:00:10;38.70;;;22.20;;
62554;SDS011;48610;52.144;8.624;2023-06-22T20:03:16;34.72;;;21.67;;
62554;SDS011;48610;52.144;8.624;2023-06-22T20:06:17;32.10;;;22.30;;
62554;SDS011;48610;52.144;8.624;2023-06-22T20:09:17;38.88;;;20.85;;
62554;SDS011;48610;52.144;8.624;2023-06-22T20:12:25;33.72;;;21.20;;
62554;SDS011;48610;52.144;8.624;2023-06-22T20:15:28;35.33;;;19.27;;
62554;SDS011;48610;52.144;8.624;2023-06-22T20:18:29;30.98;;;19.58;;
62554;SDS011;48610;52.144;8.624;2023-06-22T20:21:33;31.55;;;19.75;;
62554;SDS011;48610;52.144;8.624;2023-06-22T20:24:34;31.13;;;19.42;;
62554;SDS011;48610;52.144;8.624;2023-06-22T20:27:41;29.45;;;19.90;;
62554;SDS011;48610;52.144;8.624;2023-06-22T20:30:42;32.63;;;19.38;;
62554;SDS011;48610;52.144;8.624;2023-06-22T20:34:04;31.75;;;20.83;;
62554;SDS011;48610;52.144;8.624;2023-06-22T20:37:05;31.73;;;19.05;;
62554;SDS011;48610;52.144;8.624;2023-06-22T20:40:08;32.42;;;19.10;;
62554;SDS011;48610;52.144;8.624;2023-06-22T20:43:12;30.98;;;19.63;;
62554;SDS011;48610;52.144;8.624;2023-06-22T20:46:13;28.53;;;20.00;;
62554;SDS011;48610;52.144;8.624;2023-06-22T20:49:14;31.30;;;19.90;;
62554;SDS011;48610;52.144;8.624;2023-06-22T20:52:17;29.23;;;19.58;;
62554;SDS011;48610;52.144;8.624;2023-06-22T20:55:18;31.90;;;19.92;;
62554;SDS011;48610;52.144;8.624;2023-06-22T20:58:19;31.50;;;19.50;;
62554;SDS011;48610;52.144;8.624;2023-06-22T21:01:19;34.65;;;20.08;;
62554;SDS011;48610;52.144;8.624;2023-06-22T21:04:20;34.42;;;20.23;;
62554;SDS011;48610;52.144;8.624;2023-06-22T21:07:20;29.83;;;19.58;;
62554;SDS011;48610;52.144;8.624;2023-06-22T21:10:21;32.30;;;19.85;;
62554;SDS011;48610;52.144;8.624;2023-06-22T21:13:22;31.13;;;20.10;;
62554;SDS011;48610;52.144;8.624;2023-06-22T21:16:23;39.53;;;20.55;;
62554;SDS011;48610;52.144;8.624;2023-06-22T21:19:23;32.85;;;19.20;;
62554;SDS011;48610;52.144;8.624;2023-06-22T21:22:24;30.85;;;18.90;;
62554;SDS011;48610;52.144;8.624;2023-06-22T21:25:25;27.73;;;18.55;;
62554;SDS011;48610;52.144;8.624;2023-06-22T21:28:26;32.25;;;18.95;;
62554;SDS011;48610;52.144;8.624;2023-06-22T21:31:26;31.08;;;18.60;;